createdAt,value
2022-12-29T00:03:30.194Z,12.02
2022-12-29T00:08:41.702Z,11.96
2022-12-29T00:14:02.971Z,12.14
2022-12-29T00:19:05.787Z,12.17
2022-12-29T00:24:29.373Z,12.21
2022-12-29T00:29:50.076Z,12.24
2022-12-29T00:35:09.893Z,12.24
2022-12-29T00:40:30.645Z,12.24
2022-12-29T00:45:32.352Z,12.34
2022-12-29T00:50:34.263Z,12.25
2022-12-29T00:55:41.442Z,12.24
2022-12-29T01:00:43.275Z,12.11
2022-12-29T01:05:45.289Z,11.97
2022-12-29T01:10:59.175Z,11.50
2022-12-29T01:16:01.049Z,11.18
2022-12-29T01:21:06.236Z,11.09
2022-12-29T01:26:17.153Z,11.01
2022-12-29T01:31:20.174Z,10.96
2022-12-29T01:36:22.104Z,10.97
2022-12-29T01:41:24.609Z,10.97
2022-12-29T01:46:39.906Z,10.94
2022-12-29T01:51:53.561Z,10.96
2022-12-29T01:56:58.688Z,10.93
2022-12-29T02:02:01.807Z,10.90
2022-12-29T02:07:14.716Z,10.90
2022-12-29T02:12:19.152Z,10.93
2022-12-29T02:17:29.931Z,10.97
2022-12-29T02:22:51.656Z,11.01
2022-12-29T02:27:59.368Z,11.03
2022-12-29T02:33:32.228Z,11.13
2022-12-29T02:38:52.797Z,11.22
2022-12-29T02:44:01.167Z,11.33
2022-12-29T02:49:27.499Z,11.42
2022-12-29T02:54:44.505Z,11.47
2022-12-29T02:59:57.698Z,11.58
2022-12-29T03:05:06.059Z,11.71
2022-12-29T03:10:31.546Z,11.87
2022-12-29T03:16:02.451Z,12.02
2022-12-29T03:21:15.674Z,12.11
2022-12-29T03:26:21.331Z,12.24
2022-12-29T03:31:25.788Z,12.37
2022-12-29T03:36:37.829Z,12.44
2022-12-29T03:41:45.695Z,12.49
2022-12-29T03:46:48.345Z,12.54
2022-12-29T03:51:51.981Z,12.58
2022-12-29T03:56:54.781Z,12.63
2022-12-29T04:02:08.341Z,12.68
2022-12-29T04:07:10.376Z,12.65
2022-12-29T04:12:12.392Z,12.67
2022-12-29T04:17:14.363Z,12.67
2022-12-29T04:22:17.813Z,12.67
2022-12-29T04:27:20.756Z,12.68
2022-12-29T04:32:43.341Z,12.67
2022-12-29T04:37:45.292Z,12.67
2022-12-29T04:42:47.359Z,12.63
2022-12-29T04:47:49.371Z,12.57
2022-12-29T04:53:10.062Z,12.65
2022-12-29T04:58:16.327Z,12.62
2022-12-29T05:03:23.315Z,12.58
2022-12-29T05:08:28.343Z,12.41
2022-12-29T05:13:33.230Z,12.31
2022-12-29T05:18:35.872Z,12.26
2022-12-29T05:23:39.033Z,12.24
2022-12-29T05:28:41.893Z,12.24
2022-12-29T05:33:48.157Z,12.25
2022-12-29T05:38:50.222Z,12.31
2022-12-29T05:43:53.186Z,12.32
2022-12-29T05:49:07.419Z,12.35
2022-12-29T05:54:33.846Z,12.36
2022-12-29T05:59:37.281Z,12.41
2022-12-29T06:04:40.035Z,12.42
2022-12-29T06:09:43.224Z,12.40
2022-12-29T06:14:45.855Z,12.41
2022-12-29T06:19:47.718Z,12.44
2022-12-29T06:24:49.564Z,12.49
2022-12-29T06:29:51.526Z,12.59
2022-12-29T06:34:53.525Z,12.60
2022-12-29T06:39:55.461Z,12.66
2022-12-29T06:45:01.800Z,12.61
2022-12-29T06:50:04.408Z,12.57
2022-12-29T06:55:06.798Z,12.54
2022-12-29T07:00:09.890Z,12.51
2022-12-29T07:05:11.920Z,12.50
2022-12-29T07:10:13.858Z,12.48
2022-12-29T07:15:15.937Z,12.45
2022-12-29T07:20:24.747Z,12.48
2022-12-29T07:25:30.387Z,12.45
2022-12-29T07:30:32.888Z,12.41
2022-12-29T07:35:36.160Z,12.46
2022-12-29T07:40:38.609Z,12.51
2022-12-29T07:45:41.085Z,12.57
2022-12-29T07:50:46.716Z,13.02
2022-12-29T07:55:49.055Z,13.13
2022-12-29T08:00:55.964Z,12.94
2022-12-29T08:05:58.431Z,12.94
2022-12-29T08:11:00.990Z,12.77
2022-12-29T08:16:03.664Z,12.79
2022-12-29T08:21:07.017Z,12.77
2022-12-29T08:26:09.713Z,12.88
2022-12-29T08:31:12.554Z,13.38
2022-12-29T08:36:15.297Z,13.62
2022-12-29T08:41:17.604Z,13.77
2022-12-29T08:46:20.976Z,13.84
2022-12-29T08:51:25.097Z,13.68
2022-12-29T08:56:28.968Z,13.91
2022-12-29T09:01:35.177Z,13.63
2022-12-29T09:06:40.463Z,13.89
2022-12-29T09:11:44.836Z,13.82
2022-12-29T09:17:05.407Z,13.96
2022-12-29T09:22:07.437Z,13.96
2022-12-29T09:27:09.269Z,13.97
2022-12-29T09:32:17.122Z,13.46
2022-12-29T09:37:20.396Z,13.34
2022-12-29T09:43:08.157Z,13.74
2022-12-29T09:48:20.842Z,13.91
2022-12-29T09:53:26.252Z,13.94
2022-12-29T09:58:36.541Z,13.96
2022-12-29T10:03:52.471Z,13.95
2022-12-29T10:09:05.760Z,13.93
2022-12-29T10:14:29.084Z,13.94
2022-12-29T10:19:39.861Z,14.06
2022-12-29T10:24:45.968Z,14.22
2022-12-29T10:29:57.153Z,14.31
2022-12-29T10:35:11.156Z,14.35
2022-12-29T10:40:23.051Z,14.37
2022-12-29T10:45:30.737Z,14.42
2022-12-29T10:50:33.156Z,14.48
2022-12-29T10:55:37.684Z,14.52
2022-12-29T11:00:39.678Z,14.61
2022-12-29T11:05:53.378Z,14.76
2022-12-29T11:11:01.556Z,14.81
2022-12-29T11:16:04.104Z,14.97
2022-12-29T11:21:32.977Z,15.15
2022-12-29T11:26:35.357Z,15.29
2022-12-29T11:31:44.133Z,15.42
2022-12-29T11:36:47.193Z,15.44
2022-12-29T11:41:53.927Z,15.50
2022-12-29T11:46:56.846Z,15.52
2022-12-29T11:51:58.968Z,15.44
2022-12-29T11:57:15.724Z,15.48
2022-12-29T12:02:43.070Z,15.40
2022-12-29T12:07:55.351Z,15.53
2022-12-29T12:13:12.002Z,15.44
2022-12-29T12:18:48.685Z,15.43
2022-12-29T12:24:08.768Z,15.45
2022-12-29T12:29:22.247Z,15.42
2022-12-29T12:34:31.567Z,15.40
2022-12-29T12:39:45.372Z,15.36
2022-12-29T12:45:05.448Z,15.37
2022-12-29T12:50:17.926Z,15.39
2022-12-29T12:55:44.874Z,15.47
2022-12-29T13:00:56.046Z,16.01
2022-12-29T13:06:07.134Z,16.68
2022-12-29T13:11:40.063Z,17.23
2022-12-29T13:16:44.554Z,19.34
2022-12-29T13:22:19.312Z,20.49
2022-12-29T13:27:42.771Z,20.33
2022-12-29T13:32:58.137Z,18.81
2022-12-29T13:38:12.300Z,17.57
2022-12-29T13:43:17.050Z,16.85
2022-12-29T13:48:24.887Z,16.35
2022-12-29T13:53:39.904Z,16.08
2022-12-29T13:58:50.846Z,15.83
2022-12-29T14:03:56.421Z,15.68
2022-12-29T14:09:00.053Z,15.57
2022-12-29T14:14:21.399Z,15.45
2022-12-29T14:19:37.251Z,15.28
2022-12-29T14:24:44.593Z,15.21
2022-12-29T14:29:48.475Z,15.13
2022-12-29T14:34:52.829Z,15.09
2022-12-29T14:40:16.491Z,15.04
2022-12-29T14:45:18.324Z,14.96
2022-12-29T14:50:31.702Z,14.92
2022-12-29T14:55:47.492Z,14.87
2022-12-29T15:00:50.478Z,14.88
2022-12-29T15:06:14.837Z,14.92
2022-12-29T15:11:21.476Z,14.91
2022-12-29T15:16:27.497Z,14.85
2022-12-29T15:21:34.940Z,14.77
2022-12-29T15:26:42.180Z,14.73
2022-12-29T15:31:49.395Z,14.67
2022-12-29T15:36:52.116Z,14.64
2022-12-29T15:42:00.867Z,14.55
2022-12-29T15:47:07.986Z,14.46
2022-12-29T15:52:10.777Z,14.43
2022-12-29T15:57:22.411Z,14.50
2022-12-29T16:02:25.837Z,14.41
2022-12-29T16:07:37.347Z,14.35
2022-12-29T16:12:43.012Z,14.32
2022-12-29T16:17:51.732Z,14.21
2022-12-29T16:22:57.122Z,14.12
2022-12-29T16:28:16.785Z,14.00
2022-12-29T16:33:41.274Z,14.06
2022-12-29T16:38:43.655Z,14.03
2022-12-29T16:43:45.654Z,13.95
2022-12-29T16:48:55.465Z,13.80
2022-12-29T16:53:58.740Z,13.78
2022-12-29T16:59:10.017Z,13.80
2022-12-29T17:04:14.470Z,13.71
2022-12-29T17:09:26.584Z,13.64
2022-12-29T17:14:43.347Z,13.60
2022-12-29T17:19:54.748Z,13.57
2022-12-29T17:24:59.192Z,13.51
2022-12-29T17:30:14.009Z,13.46
2022-12-29T17:35:20.533Z,13.43
2022-12-29T17:40:27.160Z,13.42
2022-12-29T17:45:31.366Z,13.42
2022-12-29T17:50:33.446Z,13.38
2022-12-29T17:55:38.256Z,13.36
2022-12-29T18:00:40.851Z,13.38
2022-12-29T18:05:43.532Z,13.34
2022-12-29T18:10:46.429Z,13.30
2022-12-29T18:15:48.833Z,13.29
2022-12-29T18:20:55.005Z,13.21
2022-12-29T18:26:13.471Z,13.23
2022-12-29T18:31:24.160Z,13.01
2022-12-29T18:36:27.299Z,12.91
2022-12-29T18:41:30.350Z,12.87
2022-12-29T18:46:32.338Z,12.94
2022-12-29T18:51:34.408Z,13.02
2022-12-29T18:56:36.395Z,13.07
2022-12-29T19:01:38.699Z,13.02
2022-12-29T19:06:40.960Z,13.02
2022-12-29T19:11:43.237Z,13.02
2022-12-29T19:16:45.531Z,13.04
2022-12-29T19:21:47.465Z,13.06
2022-12-29T19:26:49.699Z,12.55
2022-12-29T19:31:51.807Z,12.85
2022-12-29T19:36:53.854Z,12.96
2022-12-29T19:41:59.078Z,12.98
2022-12-29T19:47:04.018Z,13.00
2022-12-29T19:52:06.556Z,12.98
2022-12-29T19:57:08.877Z,13.01
2022-12-29T20:02:33.950Z,13.02
2022-12-29T20:07:36.847Z,13.04
2022-12-29T20:12:38.936Z,13.10
2022-12-29T20:23:03.204Z,13.04
2022-12-29T20:28:05.224Z,13.05
2022-12-29T20:33:08.552Z,12.93
2022-12-29T20:38:10.884Z,12.82
2022-12-29T20:43:14.700Z,12.66
2022-12-29T20:48:16.674Z,12.65
2022-12-29T20:53:18.614Z,12.55
2022-12-29T20:58:24.654Z,12.48
2022-12-29T21:03:26.946Z,12.43
2022-12-29T21:08:32.923Z,12.37
2022-12-29T21:13:35.500Z,12.22
2022-12-29T21:18:37.392Z,12.16
2022-12-29T21:23:40.152Z,12.14
2022-12-29T21:28:43.598Z,12.11
2022-12-29T21:33:45.497Z,12.00
2022-12-29T21:38:47.892Z,11.77
2022-12-29T21:44:09.138Z,11.70
2022-12-29T21:49:11.381Z,11.59
2022-12-29T21:54:31.974Z,11.58
2022-12-29T21:59:52.172Z,11.60
2022-12-29T22:05:12.488Z,11.58
2022-12-29T22:10:33.146Z,11.47
2022-12-29T22:15:36.078Z,11.38
2022-12-29T22:20:37.973Z,11.32
2022-12-29T22:25:40.850Z,11.31
2022-12-29T22:30:42.729Z,11.31
2022-12-29T22:35:45.012Z,11.29
2022-12-29T22:40:46.840Z,11.26
2022-12-29T22:45:48.709Z,11.18
2022-12-29T22:50:55.427Z,11.20
2022-12-29T22:56:11.432Z,11.20
2022-12-29T23:01:16.202Z,11.20
2022-12-29T23:06:18.167Z,11.22
2022-12-29T23:11:19.985Z,11.22
2022-12-29T23:16:22.122Z,11.22
2022-12-29T23:21:24.199Z,11.27
2022-12-29T23:26:28.368Z,11.29
2022-12-29T23:31:31.213Z,11.33
2022-12-29T23:36:34.067Z,11.34
2022-12-29T23:41:36.012Z,11.38
2022-12-29T23:46:37.942Z,11.37
2022-12-29T23:51:40.063Z,11.35
2022-12-29T23:56:41.884Z,11.26
